createdAt,value
2022-08-25T00:00:17.403Z,36.90
2022-08-25T00:02:54.975Z,37.00
2022-08-25T00:05:29.020Z,37.10
2022-08-25T00:07:59.255Z,37.10
2022-08-25T00:10:27.492Z,37.00
2022-08-25T00:12:55.483Z,37.10
2022-08-25T00:15:24.885Z,37.20
2022-08-25T00:17:53.759Z,37.20
2022-08-25T00:20:22.440Z,37.20
2022-08-25T00:22:50.482Z,37.30
2022-08-25T00:25:19.279Z,37.40
2022-08-25T00:27:48.617Z,37.50
2022-08-25T00:30:17.338Z,37.50
2022-08-25T00:32:55.006Z,37.70
2022-08-25T00:35:26.804Z,37.90
2022-08-25T00:37:54.891Z,38.30
2022-08-25T00:40:24.478Z,38.50
2022-08-25T00:42:52.536Z,38.90
2022-08-25T00:45:20.546Z,39.10
2022-08-25T00:47:51.939Z,39.30
2022-08-25T00:50:23.192Z,39.70
2022-08-25T00:52:58.328Z,40.00
2022-08-25T00:55:29.386Z,40.20
2022-08-25T00:58:01.276Z,40.60
2022-08-25T01:00:33.474Z,40.90
2022-08-25T01:03:03.261Z,41.40
2022-08-25T01:05:32.165Z,41.80
2022-08-25T01:08:03.179Z,42.10
2022-08-25T01:10:38.001Z,42.30
2022-08-25T01:13:16.472Z,42.40
2022-08-25T01:15:45.637Z,42.70
2022-08-25T01:18:16.289Z,43.10
2022-08-25T01:20:46.942Z,43.50
2022-08-25T01:23:16.231Z,43.90
2022-08-25T01:25:52.704Z,44.30
2022-08-25T01:28:21.962Z,44.70
2022-08-25T01:30:50.487Z,45.50
2022-08-25T01:33:18.546Z,46.10
2022-08-25T01:35:46.683Z,46.80
2022-08-25T01:38:16.645Z,47.40
2022-08-25T01:40:45.669Z,48.20
2022-08-25T01:43:22.612Z,48.90
2022-08-25T01:45:50.763Z,49.50
2022-08-25T01:48:19.735Z,50.00
2022-08-25T01:50:47.638Z,50.90
2022-08-25T01:53:23.082Z,51.70
2022-08-25T01:55:55.711Z,52.70
2022-08-25T01:58:25.947Z,53.60
2022-08-25T02:00:56.888Z,54.60
2022-08-25T02:03:26.589Z,55.30
2022-08-25T02:05:55.312Z,56.00
2022-08-25T02:08:25.508Z,56.60
2022-08-25T02:10:54.349Z,57.20
2022-08-25T02:13:26.720Z,57.80
2022-08-25T02:16:02.236Z,58.70
2022-08-25T02:18:30.653Z,59.60
2022-08-25T02:20:58.621Z,60.50
2022-08-25T02:23:28.223Z,61.60
2022-08-25T02:25:57.354Z,62.70
2022-08-25T02:28:26.049Z,63.70
2022-08-25T02:30:58.784Z,64.90
2022-08-25T02:33:30.151Z,67.50
2022-08-25T02:35:59.433Z,67.20
2022-08-25T02:38:30.008Z,67.80
2022-08-25T02:41:06.323Z,68.40
2022-08-25T02:43:35.091Z,68.90
2022-08-25T02:46:03.101Z,69.80
2022-08-25T02:48:34.463Z,70.60
2022-08-25T02:51:05.799Z,71.60
2022-08-25T02:53:35.690Z,72.70
2022-08-25T02:56:04.581Z,73.50
2022-08-25T02:58:32.503Z,74.20
2022-08-25T03:01:00.482Z,74.80
2022-08-25T03:03:29.323Z,75.60
2022-08-25T03:05:59.314Z,76.30
2022-08-25T03:08:27.789Z,76.90
2022-08-25T03:10:57.088Z,77.80
2022-08-25T03:13:25.017Z,78.60
2022-08-25T03:15:54.259Z,79.00
2022-08-25T03:18:23.121Z,79.20
2022-08-25T03:20:54.103Z,79.30
2022-08-25T03:23:22.114Z,79.60
2022-08-25T03:26:08.010Z,80.30
2022-08-25T03:28:37.708Z,80.70
2022-08-25T03:31:05.730Z,81.30
2022-08-25T03:33:33.671Z,81.70
2022-08-25T03:36:07.603Z,82.20
2022-08-25T03:38:36.131Z,82.40
2022-08-25T03:41:11.847Z,82.80
2022-08-25T03:43:41.154Z,83.20
2022-08-25T03:46:09.264Z,83.30
2022-08-25T03:48:37.234Z,83.20
2022-08-25T03:51:05.659Z,83.40
2022-08-25T03:53:33.580Z,83.50
2022-08-25T03:56:01.491Z,83.70
2022-08-25T03:58:29.682Z,84.00
2022-08-25T04:01:00.390Z,84.40
2022-08-25T04:03:28.472Z,85.10
2022-08-25T04:05:56.456Z,86.20
2022-08-25T04:08:24.445Z,87.90
2022-08-25T04:10:52.619Z,89.40
2022-08-25T04:13:20.459Z,90.50
2022-08-25T04:15:48.527Z,91.00
2022-08-25T04:18:17.932Z,91.70
2022-08-25T04:20:47.433Z,92.10
2022-08-25T04:23:15.517Z,92.00
2022-08-25T04:25:43.780Z,92.00
2022-08-25T04:28:14.285Z,92.10
2022-08-25T04:30:44.299Z,92.10
2022-08-25T04:33:13.608Z,92.20
2022-08-25T04:35:48.806Z,92.30
2022-08-25T04:38:17.350Z,92.40
2022-08-25T04:40:45.286Z,92.40
2022-08-25T04:43:13.218Z,92.50
2022-08-25T04:45:41.694Z,92.70
2022-08-25T04:48:10.555Z,92.80
2022-08-25T04:50:40.233Z,92.80
2022-08-25T04:53:10.036Z,92.90
2022-08-25T04:55:41.728Z,93.00
2022-08-25T04:58:14.597Z,93.10
2022-08-25T05:00:46.602Z,93.30
2022-08-25T05:03:14.878Z,93.40
2022-08-25T05:05:42.807Z,93.60
2022-08-25T05:08:12.111Z,93.70
2022-08-25T05:10:42.443Z,94.00
2022-08-25T05:13:11.746Z,94.20
2022-08-25T05:15:51.837Z,94.40
2022-08-25T05:18:20.663Z,94.80
2022-08-25T05:20:48.663Z,95.20
2022-08-25T05:23:18.272Z,95.40
2022-08-25T05:25:46.209Z,95.60
2022-08-25T05:28:14.909Z,95.90
2022-08-25T05:30:44.660Z,95.60
2022-08-25T05:33:13.498Z,95.60
2022-08-25T05:35:41.592Z,95.60
2022-08-25T05:38:15.473Z,95.60
2022-08-25T05:40:45.188Z,95.60
2022-08-25T05:43:14.717Z,95.50
2022-08-25T05:45:42.850Z,95.50
2022-08-25T05:48:10.859Z,95.50
2022-08-25T05:50:38.938Z,95.50
2022-08-25T05:53:06.914Z,95.40
2022-08-25T05:55:35.702Z,95.30
2022-08-25T05:58:05.187Z,95.30
2022-08-25T06:00:33.368Z,95.20
2022-08-25T06:03:00.421Z,95.10
2022-08-25T06:05:29.283Z,95.10
2022-08-25T06:07:57.509Z,95.10
2022-08-25T06:10:26.072Z,95.10
2022-08-25T06:12:54.250Z,95.10
2022-08-25T06:15:26.718Z,95.00
2022-08-25T06:18:01.739Z,95.00
2022-08-25T06:20:31.481Z,95.00
2022-08-25T06:23:00.036Z,94.90
2022-08-25T06:25:32.554Z,94.90
2022-08-25T06:28:00.483Z,94.80
2022-08-25T06:30:29.950Z,94.80
2022-08-25T06:32:58.162Z,94.70
2022-08-25T06:35:26.131Z,94.60
2022-08-25T06:37:54.730Z,94.50
2022-08-25T06:40:23.100Z,94.50
2022-08-25T06:42:51.069Z,94.40
2022-08-25T06:45:19.538Z,94.20
2022-08-25T06:47:48.956Z,94.10
2022-08-25T06:50:16.973Z,94.00
2022-08-25T06:52:44.924Z,94.00
2022-08-25T06:55:13.001Z,93.90
2022-08-25T06:57:40.931Z,93.70
2022-08-25T07:00:10.826Z,93.70
2022-08-25T07:02:40.607Z,93.60
2022-08-25T07:05:16.954Z,93.30
2022-08-25T07:07:54.743Z,93.20
2022-08-25T07:10:22.912Z,93.20
2022-08-25T07:12:51.789Z,93.00
2022-08-25T07:15:20.886Z,93.30
2022-08-25T07:17:50.277Z,92.70
2022-08-25T07:20:20.152Z,92.60
2022-08-25T07:22:49.110Z,92.40
2022-08-25T07:25:17.848Z,92.20
2022-08-25T07:27:46.575Z,91.90
2022-08-25T07:30:15.229Z,91.40
2022-08-25T07:32:43.461Z,91.10
2022-08-25T07:35:18.867Z,90.90
2022-08-25T07:37:50.658Z,90.50
2022-08-25T07:40:22.325Z,90.30
2022-08-25T07:42:51.878Z,90.00
2022-08-25T07:45:21.909Z,89.60
2022-08-25T07:47:52.108Z,89.10
2022-08-25T07:50:21.233Z,88.70
2022-08-25T07:52:55.482Z,88.30
2022-08-25T07:55:24.318Z,87.70
2022-08-25T07:57:55.474Z,87.40
2022-08-25T08:00:27.462Z,86.90
2022-08-25T08:02:55.742Z,85.90
2022-08-25T08:05:24.184Z,85.10
2022-08-25T08:07:53.799Z,84.10
2022-08-25T08:10:47.964Z,83.10
2022-08-25T08:13:14.286Z,82.50
2022-08-25T08:15:46.602Z,81.60
2022-08-25T08:18:14.590Z,80.70
2022-08-25T08:20:45.352Z,79.70
2022-08-25T08:23:15.130Z,79.50
2022-08-25T08:25:43.178Z,78.00
2022-08-25T08:28:11.310Z,77.70
2022-08-25T08:30:39.384Z,77.20
2022-08-25T08:33:11.185Z,76.40
2022-08-25T08:35:40.170Z,75.80
2022-08-25T08:38:14.895Z,74.90
2022-08-25T08:41:16.333Z,73.80
2022-08-25T08:43:57.436Z,73.10
2022-08-25T08:46:31.412Z,72.00
2022-08-25T08:49:06.770Z,71.40
2022-08-25T08:51:44.168Z,70.00
2022-08-25T08:54:20.303Z,68.80
2022-08-25T08:57:05.929Z,68.00
2022-08-25T08:59:44.461Z,66.80
2022-08-25T09:02:39.173Z,65.80
2022-08-25T09:05:16.811Z,65.10
2022-08-25T09:07:49.298Z,64.50
2022-08-25T09:10:25.581Z,63.60
2022-08-25T09:13:12.290Z,62.50
2022-08-25T09:16:07.607Z,61.40
2022-08-25T09:18:51.183Z,60.20
2022-08-25T09:21:28.555Z,59.00
2022-08-25T09:24:23.596Z,57.70
2022-08-25T09:27:07.591Z,55.00
2022-08-25T09:29:50.388Z,51.40
2022-08-25T09:32:24.170Z,46.60
2022-08-25T09:34:55.339Z,42.30
2022-08-25T09:37:25.770Z,38.40
2022-08-25T09:39:53.743Z,34.30
2022-08-25T09:42:23.907Z,29.00
2022-08-25T09:44:53.327Z,24.60
2022-08-25T09:47:24.567Z,20.60
2022-08-25T09:50:00.209Z,17.50
2022-08-25T09:52:33.743Z,16.10
2022-08-25T09:55:23.869Z,14.80
2022-08-25T09:57:55.058Z,13.30
2022-08-25T10:00:27.881Z,11.80
2022-08-25T10:03:09.352Z,11.20
2022-08-25T10:05:56.099Z,10.60
2022-08-25T10:08:31.435Z,9.60
2022-08-25T10:11:01.718Z,9.10
2022-08-25T10:13:39.676Z,8.20
2022-08-25T10:16:18.034Z,7.40
2022-08-25T10:19:03.095Z,6.80
2022-08-25T10:21:31.058Z,5.80
2022-08-25T10:24:01.657Z,5.40
2022-08-25T10:26:37.315Z,5.40
2022-08-25T10:29:17.618Z,5.30
2022-08-25T10:31:53.615Z,5.00
2022-08-25T10:34:37.358Z,4.80
2022-08-25T10:37:16.319Z,4.60
2022-08-25T10:39:46.534Z,4.40
2022-08-25T10:42:37.035Z,4.40
2022-08-25T10:45:41.082Z,4.30
2022-08-25T10:48:32.781Z,4.70
2022-08-25T10:51:08.050Z,4.90
2022-08-25T10:53:49.087Z,5.20
2022-08-25T10:56:21.187Z,5.30
2022-08-25T10:59:11.105Z,5.40
2022-08-25T11:01:59.098Z,5.80
2022-08-25T11:04:33.740Z,6.00
2022-08-25T11:07:09.339Z,6.10
2022-08-25T11:09:42.516Z,5.60
2022-08-25T11:12:14.827Z,5.00
2022-08-25T11:14:50.150Z,4.60
2022-08-25T11:17:24.673Z,4.90
2022-08-25T11:19:58.617Z,5.50
2022-08-25T11:22:34.276Z,5.80
2022-08-25T11:25:13.604Z,6.10
2022-08-25T11:27:47.073Z,6.60
2022-08-25T11:30:18.864Z,7.90
2022-08-25T11:32:50.564Z,9.10
2022-08-25T11:35:28.286Z,10.10
2022-08-25T11:38:08.092Z,10.90
2022-08-25T11:40:50.084Z,11.90
2022-08-25T11:43:35.589Z,12.70
2022-08-25T11:46:22.725Z,13.10
2022-08-25T11:49:10.393Z,13.10
2022-08-25T11:51:44.813Z,13.20
2022-08-25T11:54:20.854Z,13.50
2022-08-25T11:57:01.187Z,14.30
2022-08-25T12:00:10.237Z,14.30
2022-08-25T12:02:42.565Z,14.20
2022-08-25T12:05:33.110Z,14.90
2022-08-25T12:08:23.981Z,15.70
2022-08-25T12:11:01.158Z,16.40
2022-08-25T12:13:47.397Z,17.50
2022-08-25T12:16:42.175Z,17.70
2022-08-25T12:19:47.899Z,18.00
2022-08-25T12:22:55.150Z,18.30
2022-08-25T12:25:50.447Z,18.50
2022-08-25T12:28:41.760Z,18.20
2022-08-25T12:31:22.978Z,17.90
2022-08-25T12:34:08.046Z,17.30
2022-08-25T12:36:36.107Z,17.00
2022-08-25T12:39:19.170Z,17.30
2022-08-25T12:41:57.281Z,17.40
2022-08-25T12:44:47.727Z,17.60
2022-08-25T12:47:32.172Z,17.50
2022-08-25T12:50:26.721Z,17.00
2022-08-25T12:52:56.560Z,17.10
2022-08-25T12:55:28.063Z,17.10
2022-08-25T12:58:00.871Z,17.40
2022-08-25T13:00:32.596Z,17.30
2022-08-25T13:03:31.196Z,17.00
2022-08-25T13:06:38.719Z,15.80
2022-08-25T13:09:46.088Z,14.60
2022-08-25T13:12:18.913Z,14.50
2022-08-25T13:14:54.726Z,14.60
2022-08-25T13:17:31.216Z,14.50
2022-08-25T13:20:21.126Z,14.30
2022-08-25T13:22:56.729Z,14.10
2022-08-25T13:25:32.632Z,14.00
2022-08-25T13:28:10.882Z,13.70
2022-08-25T13:30:40.658Z,13.10
2022-08-25T13:33:20.223Z,12.50
2022-08-25T13:35:52.360Z,12.90
2022-08-25T13:38:20.223Z,13.00
2022-08-25T13:40:49.768Z,12.70
2022-08-25T13:43:17.809Z,13.50
2022-08-25T13:45:56.849Z,13.50
2022-08-25T13:48:34.956Z,13.70
2022-08-25T13:51:11.210Z,13.20
2022-08-25T13:53:41.683Z,13.10
2022-08-25T13:56:10.467Z,12.90
2022-08-25T13:58:45.522Z,13.00
2022-08-25T14:01:23.178Z,12.40
2022-08-25T14:04:29.478Z,12.40
2022-08-25T14:07:20.164Z,12.40
2022-08-25T14:09:51.605Z,12.50
2022-08-25T14:12:33.604Z,12.50
2022-08-25T14:15:06.699Z,12.70
2022-08-25T14:17:39.583Z,12.60
2022-08-25T14:20:22.307Z,12.80
2022-08-25T14:22:54.751Z,12.80
2022-08-25T14:25:22.874Z,12.80
2022-08-25T14:28:13.812Z,12.70
2022-08-25T14:30:46.277Z,12.50
2022-08-25T14:33:17.709Z,12.40
2022-08-25T14:35:52.233Z,12.00
2022-08-25T14:38:23.123Z,11.90
2022-08-25T14:40:51.311Z,12.10
2022-08-25T14:43:24.012Z,12.10
2022-08-25T14:46:00.576Z,12.00
2022-08-25T14:48:36.963Z,12.00
2022-08-25T14:51:05.391Z,12.20
2022-08-25T14:53:33.976Z,12.30
2022-08-25T14:56:08.394Z,12.20
2022-08-25T14:58:51.582Z,11.30
2022-08-25T15:01:29.619Z,11.30
2022-08-25T15:04:04.402Z,11.40
2022-08-25T15:06:36.653Z,11.30
2022-08-25T15:09:11.568Z,11.30
2022-08-25T15:11:42.261Z,11.40
2022-08-25T15:14:11.177Z,11.50
2022-08-25T15:16:43.510Z,11.50
2022-08-25T15:19:16.012Z,11.40
2022-08-25T15:21:45.902Z,11.40
2022-08-25T15:24:17.508Z,11.60
2022-08-25T15:29:26.188Z,11.40
2022-08-25T15:31:54.511Z,11.50
2022-08-25T15:34:23.972Z,11.30
2022-08-25T15:36:52.091Z,11.30
2022-08-25T15:39:20.378Z,11.20
2022-08-25T15:41:52.146Z,11.00
2022-08-25T15:44:20.723Z,11.00
2022-08-25T15:46:50.227Z,10.80
2022-08-25T15:49:20.607Z,11.00
2022-08-25T15:51:54.414Z,11.00
2022-08-25T15:54:23.101Z,11.20
2022-08-25T15:56:51.690Z,11.30
2022-08-25T15:59:21.678Z,11.30
2022-08-25T16:01:53.432Z,11.50
2022-08-25T16:04:22.745Z,11.30
2022-08-25T16:06:54.173Z,11.30
2022-08-25T16:09:23.795Z,11.40
2022-08-25T16:11:56.735Z,11.20
2022-08-25T16:14:25.977Z,10.70
2022-08-25T16:16:54.040Z,10.80
2022-08-25T16:19:26.680Z,11.00
2022-08-25T16:21:56.211Z,11.10
2022-08-25T16:24:24.398Z,11.20
2022-08-25T16:26:53.392Z,11.30
2022-08-25T16:29:24.012Z,11.40
2022-08-25T16:31:53.364Z,11.50
2022-08-25T16:34:24.745Z,11.60
2022-08-25T16:36:58.192Z,11.80
2022-08-25T16:39:27.413Z,12.00
2022-08-25T16:41:55.353Z,12.30
2022-08-25T16:44:24.343Z,12.30
2022-08-25T16:46:55.346Z,12.50
2022-08-25T16:49:24.773Z,12.60
2022-08-25T16:51:57.444Z,12.80
2022-08-25T16:54:44.966Z,13.00
2022-08-25T16:57:13.285Z,13.00
2022-08-25T16:59:42.525Z,13.20
2022-08-25T17:02:11.990Z,13.60
2022-08-25T17:04:40.661Z,13.80
2022-08-25T17:07:08.857Z,13.90
2022-08-25T17:09:38.230Z,13.90
2022-08-25T17:12:06.606Z,14.00
2022-08-25T17:14:34.498Z,14.10
2022-08-25T17:17:04.026Z,14.10
2022-08-25T17:19:35.101Z,14.10
2022-08-25T17:22:03.360Z,14.30
2022-08-25T17:24:33.739Z,14.30
2022-08-25T17:27:03.444Z,14.30
2022-08-25T17:29:31.566Z,14.40
2022-08-25T17:31:59.653Z,14.70
2022-08-25T17:34:29.074Z,14.70
2022-08-25T17:36:58.290Z,14.60
2022-08-25T17:39:28.124Z,15.20
2022-08-25T17:41:56.321Z,14.80
2022-08-25T17:44:25.677Z,14.90
2022-08-25T17:46:53.867Z,14.90
2022-08-25T17:49:23.034Z,14.90
2022-08-25T17:51:51.011Z,15.00
2022-08-25T17:54:20.165Z,15.40
2022-08-25T17:56:48.856Z,15.90
2022-08-25T17:59:19.101Z,16.40
2022-08-25T18:01:50.088Z,16.80
2022-08-25T18:04:23.403Z,17.00
2022-08-25T18:06:55.241Z,17.30
2022-08-25T18:09:23.374Z,17.80
2022-08-25T18:11:52.887Z,18.50
2022-08-25T18:14:25.255Z,18.70
2022-08-25T18:16:55.131Z,19.00
2022-08-25T18:19:23.279Z,19.40
2022-08-25T18:21:52.379Z,19.70
2022-08-25T18:24:20.613Z,20.20
2022-08-25T18:26:51.557Z,20.80
2022-08-25T18:29:20.578Z,20.90
2022-08-25T18:31:48.862Z,21.10
2022-08-25T18:34:18.867Z,21.30
2022-08-25T18:36:46.886Z,21.80
2022-08-25T18:39:34.849Z,22.60
2022-08-25T18:42:03.232Z,22.40
2022-08-25T18:44:31.620Z,23.00
2022-08-25T18:46:59.663Z,23.30
2022-08-25T18:49:37.218Z,23.80
2022-08-25T18:52:06.004Z,23.40
2022-08-25T18:54:36.218Z,23.70
2022-08-25T18:57:04.655Z,23.90
2022-08-25T18:59:36.262Z,24.40
2022-08-25T19:02:04.480Z,24.90
2022-08-25T19:04:32.606Z,25.10
2022-08-25T19:07:02.978Z,25.10
2022-08-25T19:09:31.787Z,25.50
2022-08-25T19:12:00.019Z,25.90
2022-08-25T19:14:28.513Z,26.10
2022-08-25T19:16:57.893Z,26.30
2022-08-25T19:19:26.020Z,26.40
2022-08-25T19:21:53.981Z,26.70
2022-08-25T19:24:23.283Z,26.80
2022-08-25T19:26:54.467Z,26.90
2022-08-25T19:29:23.713Z,26.80
2022-08-25T19:31:52.212Z,26.90
2022-08-25T19:34:23.989Z,27.10
2022-08-25T19:36:56.443Z,27.30
2022-08-25T19:39:25.910Z,27.60
2022-08-25T19:41:53.859Z,28.00
2022-08-25T19:44:21.821Z,28.50
2022-08-25T19:46:50.668Z,28.60
2022-08-25T19:49:25.607Z,28.80
2022-08-25T19:51:55.539Z,28.90
2022-08-25T19:54:27.279Z,29.10
2022-08-25T19:56:57.277Z,29.20
2022-08-25T19:59:26.734Z,29.60
2022-08-25T20:02:02.853Z,30.50
2022-08-25T20:04:30.822Z,30.40
2022-08-25T20:06:59.123Z,30.80
2022-08-25T20:09:38.874Z,31.30
2022-08-25T20:12:10.210Z,31.50
2022-08-25T20:14:38.402Z,31.70
2022-08-25T20:17:14.657Z,31.60
2022-08-25T20:19:54.352Z,32.30
2022-08-25T20:22:26.118Z,31.80
2022-08-25T20:24:58.071Z,32.40
2022-08-25T20:27:29.741Z,32.70
2022-08-25T20:29:57.725Z,32.40
2022-08-25T20:32:26.104Z,32.10
2022-08-25T20:34:57.041Z,32.20
2022-08-25T20:37:26.393Z,32.10
2022-08-25T20:39:54.914Z,32.60
2022-08-25T20:42:24.329Z,32.80
2022-08-25T20:44:53.527Z,33.60
2022-08-25T20:47:22.532Z,33.30
2022-08-25T20:49:50.571Z,33.60
2022-08-25T20:52:19.516Z,34.00
2022-08-25T20:54:50.547Z,34.40
2022-08-25T20:57:24.398Z,35.30
2022-08-25T20:59:55.476Z,35.10
2022-08-25T21:02:23.652Z,35.00
2022-08-25T21:04:51.974Z,34.90
2022-08-25T21:07:21.029Z,34.60
2022-08-25T21:09:51.941Z,34.60
2022-08-25T21:12:20.145Z,34.90
2022-08-25T21:14:48.165Z,35.20
2022-08-25T21:17:19.343Z,35.40
2022-08-25T21:22:21.459Z,35.90
2022-08-25T21:24:51.409Z,35.90
2022-08-25T21:27:19.714Z,36.10
2022-08-25T21:29:54.674Z,36.60
2022-08-25T21:32:25.211Z,37.00
2022-08-25T21:34:54.527Z,37.60
2022-08-25T21:37:22.655Z,37.80
2022-08-25T21:39:50.908Z,37.90
2022-08-25T21:42:19.195Z,38.00
2022-08-25T21:44:47.369Z,38.20
2022-08-25T21:47:15.792Z,38.40
2022-08-25T21:49:50.944Z,38.80
2022-08-25T21:52:20.750Z,39.10
2022-08-25T21:54:48.779Z,39.30
2022-08-25T21:57:19.028Z,39.50
2022-08-25T21:59:47.401Z,39.70
2022-08-25T22:02:19.234Z,40.10
2022-08-25T22:04:53.800Z,40.70
2022-08-25T22:07:24.703Z,40.90
2022-08-25T22:09:53.318Z,41.00
2022-08-25T22:12:21.267Z,41.20
2022-08-25T22:14:49.249Z,41.40
2022-08-25T22:17:21.047Z,41.70
2022-08-25T22:19:54.212Z,42.10
2022-08-25T22:22:23.887Z,42.50
2022-08-25T22:24:52.403Z,43.00
2022-08-25T22:27:23.302Z,43.40
2022-08-25T22:29:52.746Z,43.80
2022-08-25T22:32:20.976Z,44.30
2022-08-25T22:34:48.883Z,44.80
2022-08-25T22:37:18.849Z,45.40
2022-08-25T22:39:47.204Z,46.20
2022-08-25T22:42:16.259Z,46.90
2022-08-25T22:44:44.199Z,47.70
2022-08-25T22:47:12.375Z,48.40
2022-08-25T22:49:40.376Z,49.00
2022-08-25T22:52:12.917Z,49.90
2022-08-25T22:54:42.796Z,51.00
2022-08-25T22:57:11.639Z,52.10
2022-08-25T22:59:40.585Z,53.20
2022-08-25T23:02:08.959Z,54.30
2022-08-25T23:04:41.531Z,55.30
2022-08-25T23:07:12.753Z,56.20
2022-08-25T23:09:42.466Z,56.90
2022-08-25T23:12:12.862Z,57.80
2022-08-25T23:14:42.203Z,59.20
2022-08-25T23:17:12.442Z,60.30
2022-08-25T23:19:41.717Z,61.30
2022-08-25T23:22:12.503Z,62.00
2022-08-25T23:24:43.857Z,61.20
2022-08-25T23:27:14.412Z,60.40
2022-08-25T23:29:46.012Z,59.70
2022-08-25T23:32:15.128Z,59.30
2022-08-25T23:34:46.416Z,59.10
2022-08-25T23:37:15.300Z,58.80
2022-08-25T23:39:45.644Z,58.80
2022-08-25T23:42:13.880Z,59.00
2022-08-25T23:44:41.811Z,59.10
2022-08-25T23:47:11.973Z,59.50
2022-08-25T23:49:40.370Z,59.80
2022-08-25T23:52:08.611Z,59.70
2022-08-25T23:54:36.581Z,59.70
2022-08-25T23:57:06.910Z,59.70
2022-08-25T23:59:35.133Z,59.50
